Time;durP1;ratioP1;P1;durP2;ratioP2;P2;SDS_P1;SDS_P2;PMS_P1;PMS_P2;Temp;Humidity;BMP_temperature;BMP_pressure;BME280_temperature;BME280_humidity;BME280_pressure;Samples;Min_cycle;Max_cycle;Signal;HPM_P1;HPM_P2
2023/05/16 00:01:49;;;;;;;12.60;1.38;;;9.00;99.90;;;;;;5067836;28;20127;-83
2023/05/16 00:04:16;;;;;;;15.55;2.30;;;8.80;99.90;;;;;;5067110;28;20432;-83
2023/05/16 00:06:42;;;;;;;16.45;1.92;;;9.30;99.90;;;;;;5049992;28;20044;-83
2023/05/16 00:09:07;;;;;;;17.13;1.80;;;9.30;99.90;;;;;;5018803;28;20128;-83
2023/05/16 00:11:33;;;;;;;17.20;2.67;;;9.10;99.90;;;;;;5049565;28;20040;-83
2023/05/16 00:14:00;;;;;;;12.43;1.83;;;8.80;99.90;;;;;;5067286;28;20076;-83
2023/05/16 00:16:28;;;;;;;19.90;1.60;;;8.80;99.90;;;;;;5066658;28;20109;-82
2023/05/16 00:18:56;;;;;;;7.60;1.52;;;8.70;99.90;;;;;;5051011;28;20049;-82
2023/05/16 00:21:22;;;;;;;19.73;1.85;;;8.70;99.90;;;;;;5067022;28;20131;-83
2023/05/16 00:23:48;;;;;;;9.77;1.95;;;8.60;99.90;;;;;;5049832;28;20134;-83
2023/05/16 00:26:14;;;;;;;19.30;2.15;;;9.30;99.90;;;;;;5051170;28;20501;-83
2023/05/16 00:28:39;;;;;;;16.10;1.58;;;9.50;99.90;;;;;;5065764;28;20494;-83
2023/05/16 00:31:05;;;;;;;12.50;1.55;;;8.60;99.90;;;;;;5051056;28;20083;-83
2023/05/16 00:33:31;;;;;;;12.10;1.40;;;8.40;99.90;;;;;;5049131;28;20131;-83
2023/05/16 00:35:56;;;;;;;17.50;2.35;;;9.30;99.90;;;;;;5017934;28;20040;-83
2023/05/16 00:38:24;;;;;;;9.90;1.65;;;8.40;99.90;;;;;;5066778;28;20083;-83
2023/05/16 00:40:50;;;;;;;15.90;2.03;;;9.10;99.90;;;;;;5066657;28;20134;-82
2023/05/16 00:43:16;;;;;;;18.15;1.60;;;8.30;99.90;;;;;;5033883;28;20564;-83
2023/05/16 00:45:41;;;;;;;22.23;2.15;;;9.50;99.90;;;;;;5049029;28;20045;-83
2023/05/16 00:48:08;;;;;;;16.08;2.03;;;8.30;99.90;;;;;;5067516;28;20044;-83
2023/05/16 00:50:36;;;;;;;11.13;1.38;;;8.20;99.90;;;;;;5065968;28;20052;-83
2023/05/16 00:53:02;;;;;;;8.73;1.92;;;8.10;99.90;;;;;;5067153;28;20123;-83
2023/05/16 00:55:28;;;;;;;13.73;2.83;;;8.20;99.90;;;;;;5067278;28;20497;-82
2023/05/16 00:57:54;;;;;;;14.82;1.50;;;9.30;99.90;;;;;;5070044;28;20128;-83
2023/05/16 01:00:20;;;;;;;11.85;1.73;;;8.80;99.90;;;;;;5034347;28;20052;-82
2023/05/16 01:02:47;;;;;;;12.77;2.10;;;8.20;99.90;;;;;;5049436;28;20048;-83
2023/05/16 01:05:12;;;;;;;9.52;1.35;;;8.30;99.90;;;;;;5067811;28;20130;-83
2023/05/16 01:07:38;;;;;;;15.80;1.88;;;8.30;99.90;;;;;;5066267;28;20080;-83
2023/05/16 01:10:06;;;;;;;15.13;1.83;;;8.60;99.90;;;;;;5067039;28;20487;-83
2023/05/16 01:12:43;;;;;;;14.00;1.92;;;8.30;99.90;;;;;;5049324;28;20040;-83
2023/05/16 01:15:29;;;;;;;15.00;1.85;;;8.30;99.90;;;;;;5049445;28;20379;-83
2023/05/16 01:17:57;;;;;;;14.68;2.22;;;8.30;99.90;;;;;;5067130;28;20056;-83
2023/05/16 01:20:38;;;;;;;22.23;2.83;;;8.30;99.90;;;;;;5065530;28;20052;-83
2023/05/16 01:23:30;;;;;;;18.10;2.47;;;8.50;99.90;;;;;;5066799;28;20037;-83
2023/05/16 01:26:21;;;;;;;19.02;3.45;;;8.30;99.90;;;;;;5069766;28;20127;-83
2023/05/16 01:28:49;;;;;;;9.55;1.63;;;8.30;99.90;;;;;;5052545;28;20056;-81
2023/05/16 01:31:15;;;;;;;16.55;1.40;;;8.20;99.90;;;;;;5054266;28;20044;-81
2023/05/16 01:33:41;;;;;;;27.00;4.07;;;9.20;99.90;;;;;;5070174;28;20052;-82
2023/05/16 01:36:20;;;;;;;13.40;2.13;;;8.10;99.90;;;;;;5053574;28;20054;-81
2023/05/16 01:39:02;;;;;;;10.55;1.48;;;8.50;99.90;;;;;;5070589;28;20056;-81
2023/05/16 01:41:34;;;;;;;16.83;1.67;;;8.00;99.90;;;;;;5052673;28;20044;-81
2023/05/16 01:44:06;;;;;;;16.63;1.23;;;8.90;99.90;;;;;;5054083;28;20052;-81
2023/05/16 01:46:37;;;;;;;11.27;2.08;;;9.10;99.90;;;;;;5053518;28;20040;-82
2023/05/16 01:49:15;;;;;;;9.25;2.40;;;7.90;99.90;;;;;;5070468;28;20072;-81
2023/05/16 01:51:44;;;;;;;9.88;1.83;;;7.80;99.90;;;;;;5071116;28;20097;-81
2023/05/16 01:54:12;;;;;;;15.35;1.85;;;7.70;99.90;;;;;;5068754;28;20135;-81
2023/05/16 01:56:38;;;;;;;7.25;1.13;;;8.70;99.90;;;;;;5053997;28;20680;-81
2023/05/16 01:59:07;;;;;;;9.90;1.48;;;8.80;99.90;;;;;;5035963;28;20071;-81
2023/05/16 02:01:33;;;;;;;18.15;2.67;;;7.70;99.90;;;;;;5053500;28;20045;-81
2023/05/16 02:03:59;;;;;;;23.70;2.08;;;8.10;99.90;;;;;;5052857;28;20145;-81
2023/05/16 02:06:25;;;;;;;16.38;1.90;;;7.70;99.90;;;;;;5020114;28;20052;-81
2023/05/16 02:08:51;;;;;;;23.30;2.10;;;9.00;99.90;;;;;;5053769;28;20048;-82
2023/05/16 02:11:17;;;;;;;27.58;2.63;;;7.60;99.90;;;;;;5052124;28;20044;-81
2023/05/16 02:13:43;;;;;;;16.83;2.13;;;7.60;99.90;;;;;;5053649;28;20143;-82
2023/05/16 02:16:10;;;;;;;8.57;1.00;;;8.40;99.90;;;;;;5068500;28;20057;-82
2023/05/16 02:18:36;;;;;;;17.02;1.60;;;8.20;99.90;;;;;;5053331;28;20131;-82
2023/05/16 02:21:01;;;;;;;15.38;1.73;;;7.80;99.90;;;;;;5068688;28;20098;-81
2023/05/16 02:23:27;;;;;;;18.88;2.75;;;8.40;99.90;;;;;;5036085;28;20048;-82
2023/05/16 02:25:53;;;;;;;14.15;2.13;;;7.60;99.90;;;;;;5036168;28;20127;-82
2023/05/16 02:28:18;;;;;;;15.05;2.78;;;7.60;99.90;;;;;;5052009;28;20044;-82
2023/05/16 02:30:44;;;;;;;11.73;2.00;;;7.70;99.90;;;;;;5053116;28;20037;-82
2023/05/16 02:33:10;;;;;;;14.00;1.50;;;7.70;99.90;;;;;;5051125;28;20048;-83
2023/05/16 02:35:36;;;;;;;15.00;2.78;;;7.50;99.90;;;;;;5052854;28;20448;-82
2023/05/16 02:38:01;;;;;;;6.47;2.00;;;7.50;99.90;;;;;;5068288;28;20083;-83
2023/05/16 02:40:27;;;;;;;18.85;1.95;;;7.50;99.90;;;;;;5019524;28;20399;-82
2023/05/16 02:42:53;;;;;;;16.95;2.47;;;8.30;99.90;;;;;;5052292;28;20121;-83
2023/05/16 02:45:18;;;;;;;16.52;3.10;;;7.90;99.90;;;;;;5068086;28;20063;-82
2023/05/16 02:47:44;;;;;;;16.15;1.52;;;7.60;99.90;;;;;;5069832;28;20094;-82
2023/05/16 02:50:10;;;;;;;8.90;1.60;;;7.60;99.90;;;;;;5050781;28;20110;-82
2023/05/16 02:52:35;;;;;;;20.45;2.33;;;7.50;99.90;;;;;;5069312;28;20091;-82
2023/05/16 02:55:01;;;;;;;17.80;1.75;;;7.80;99.90;;;;;;5067895;28;20044;-83
2023/05/16 02:57:27;;;;;;;13.60;2.03;;;7.50;99.90;;;;;;5069009;28;20049;-82
2023/05/16 02:59:52;;;;;;;6.00;1.38;;;7.50;99.90;;;;;;5051928;28;20044;-82
2023/05/16 03:02:18;;;;;;;13.85;2.13;;;7.80;99.90;;;;;;5051135;28;20061;-83
2023/05/16 03:04:44;;;;;;;13.63;1.30;;;7.50;99.90;;;;;;5052688;28;20056;-82
2023/05/16 03:07:10;;;;;;;14.00;1.45;;;7.50;99.90;;;;;;5050347;28;20131;-82
2023/05/16 03:09:35;;;;;;;14.05;2.15;;;7.50;99.90;;;;;;5069004;28;20044;-83
2023/05/16 03:12:01;;;;;;;16.80;1.90;;;7.50;99.90;;;;;;5051369;28;20057;-83
2023/05/16 03:14:26;;;;;;;10.27;1.40;;;7.50;99.90;;;;;;5051635;28;20048;-82
2023/05/16 03:16:52;;;;;;;19.90;2.35;;;8.20;99.90;;;;;;5034909;28;20075;-82
2023/05/16 03:19:18;;;;;;;11.57;1.80;;;7.80;99.90;;;;;;5050941;28;20127;-82
2023/05/16 03:21:44;;;;;;;14.88;4.35;;;8.10;99.90;;;;;;5051953;28;20129;-82
2023/05/16 03:24:10;;;;;;;15.23;2.53;;;7.50;99.90;;;;;;5049935;28;20083;-82
2023/05/16 03:26:36;;;;;;;10.43;1.10;;;7.40;99.90;;;;;;5069071;28;20044;-82
2023/05/16 03:29:01;;;;;;;11.75;1.63;;;7.40;99.90;;;;;;5050225;28;20044;-83
2023/05/16 03:31:27;;;;;;;19.42;2.03;;;7.40;99.90;;;;;;5035208;28;20098;-82
2023/05/16 03:33:53;;;;;;;12.27;1.60;;;7.40;99.90;;;;;;5051070;28;20049;-82
2023/05/16 03:36:21;;;;;;;16.65;1.50;;;8.30;99.90;;;;;;5034179;28;20462;-82
2023/05/16 03:38:47;;;;;;;14.68;2.05;;;7.30;99.90;;;;;;5068490;28;20397;-83
2023/05/16 03:41:13;;;;;;;9.65;1.23;;;7.30;99.90;;;;;;5050354;28;20102;-82
2023/05/16 03:43:39;;;;;;;12.50;1.52;;;8.00;99.90;;;;;;5068211;28;20045;-82
2023/05/16 03:46:04;;;;;;;12.80;1.77;;;8.10;99.90;;;;;;5066541;28;20549;-82
2023/05/16 03:48:30;;;;;;;11.98;1.33;;;7.20;99.90;;;;;;5067099;28;20087;-83
2023/05/16 03:50:56;;;;;;;12.00;1.50;;;7.20;99.90;;;;;;5067126;28;20070;-82
2023/05/16 03:53:21;;;;;;;12.82;1.02;;;7.20;99.90;;;;;;5051205;28;20090;-82
2023/05/16 03:55:47;;;;;;;7.50;0.93;;;7.60;99.90;;;;;;5051256;28;20406;-82
2023/05/16 03:58:13;;;;;;;14.27;1.67;;;7.20;99.90;;;;;;5050063;28;20048;-82
2023/05/16 04:00:38;;;;;;;12.05;1.48;;;7.20;99.90;;;;;;5067938;28;20040;-83
2023/05/16 04:03:04;;;;;;;13.48;1.52;;;8.70;99.90;;;;;;5049613;28;20102;-82
2023/05/16 04:05:30;;;;;;;6.63;1.00;;;7.20;99.90;;;;;;5068249;28;20297;-82
2023/05/16 04:07:55;;;;;;;9.32;1.20;;;7.20;99.90;;;;;;5050543;28;20321;-82
2023/05/16 04:10:21;;;;;;;13.38;1.52;;;7.20;99.90;;;;;;5017691;28;20036;-83
2023/05/16 04:12:47;;;;;;;6.15;1.05;;;7.20;99.90;;;;;;5050964;28;20397;-83
2023/05/16 04:15:13;;;;;;;8.38;0.90;;;7.50;99.90;;;;;;5049870;28;20044;-83
2023/05/16 04:17:39;;;;;;;6.25;1.05;;;7.20;99.90;;;;;;5034831;28;20440;-83
2023/05/16 04:20:05;;;;;;;4.95;1.00;;;8.20;99.90;;;;;;5049675;28;20052;-83
2023/05/16 04:22:31;;;;;;;4.15;1.17;;;7.20;99.90;;;;;;5034578;28;20041;-83
2023/05/16 04:24:57;;;;;;;4.55;1.02;;;7.20;99.90;;;;;;5049709;28;20051;-82
2023/05/16 04:27:23;;;;;;;6.70;0.80;;;7.30;99.90;;;;;;5067329;28;20131;-82
2023/05/16 04:29:48;;;;;;;6.28;0.77;;;7.70;99.90;;;;;;5067303;28;20155;-82
2023/05/16 04:32:14;;;;;;;6.60;0.60;;;7.30;99.90;;;;;;5050411;28;20069;-83
2023/05/16 04:34:40;;;;;;;3.00;0.60;;;8.40;99.90;;;;;;5067734;28;20624;-81
2023/05/16 04:37:07;;;;;;;9.23;0.90;;;7.70;99.90;;;;;;5049833;28;20052;-82
2023/05/16 04:39:36;;;;;;;4.22;0.80;;;7.50;99.90;;;;;;5035076;28;20441;-83
2023/05/16 04:42:03;;;;;;;7.13;0.63;;;7.60;99.90;;;;;;5066816;28;20080;-82
2023/05/16 04:44:29;;;;;;;9.93;0.70;;;7.60;99.90;;;;;;5050487;28;20139;-82
2023/05/16 04:46:55;;;;;;;8.57;0.73;;;8.50;99.90;;;;;;5066494;28;20131;-82
2023/05/16 04:49:21;;;;;;;3.90;1.05;;;8.30;99.90;;;;;;5066783;28;20056;-82
2023/05/16 04:51:48;;;;;;;4.88;0.85;;;8.90;99.90;;;;;;5034368;28;20052;-81
2023/05/16 04:54:14;;;;;;;3.92;1.23;;;8.60;99.90;;;;;;5049231;28;20045;-82
2023/05/16 04:56:40;;;;;;;15.25;1.02;;;9.20;99.90;;;;;;5034191;28;20083;-81
2023/05/16 04:59:05;;;;;;;7.47;0.88;;;8.70;99.90;;;;;;5065648;28;20107;-81
2023/05/16 05:01:31;;;;;;;5.18;0.70;;;8.10;99.90;;;;;;5050589;28;20135;-80
2023/05/16 05:03:57;;;;;;;6.03;0.55;;;8.80;99.90;;;;;;5032842;28;20429;-81
2023/05/16 05:06:23;;;;;;;6.13;0.55;;;8.90;99.90;;;;;;5066176;28;20158;-81
2023/05/16 05:08:48;;;;;;;8.43;0.70;;;8.40;99.90;;;;;;5050354;28;20048;-81
2023/05/16 05:11:14;;;;;;;6.72;0.60;;;8.70;99.90;;;;;;5049280;28;20044;-81
2023/05/16 05:13:40;;;;;;;9.00;2.83;;;8.70;99.90;;;;;;5017441;28;20094;-81
2023/05/16 05:16:06;;;;;;;12.20;2.22;;;9.10;99.90;;;;;;5065461;28;20075;-80
2023/05/16 05:18:32;;;;;;;3.20;0.50;;;8.80;99.90;;;;;;5033763;28;20045;-81
2023/05/16 05:20:58;;;;;;;3.33;0.60;;;8.70;99.90;;;;;;5065922;28;20045;-80
2023/05/16 05:23:24;;;;;;;2.70;0.47;;;8.80;99.90;;;;;;5066266;28;20135;-81
2023/05/16 05:25:50;;;;;;;7.47;0.90;;;9.20;99.90;;;;;;5066841;28;20624;-80
2023/05/16 05:28:16;;;;;;;6.32;0.90;;;8.90;99.90;;;;;;5065314;28;20268;-79
2023/05/16 05:30:41;;;;;;;3.92;0.60;;;8.80;99.90;;;;;;5017495;28;20040;-79
2023/05/16 05:33:10;;;;;;;5.15;0.85;;;8.90;99.90;;;;;;5031842;28;20041;-78
2023/05/16 05:35:36;;;;;;;5.00;0.50;;;9.00;99.90;;;;;;5034299;28;20051;-79
2023/05/16 05:38:03;;;;;;;10.18;0.70;;;9.20;99.90;;;;;;5049320;28;20345;-81
2023/05/16 05:40:28;;;;;;;1.33;0.40;;;9.80;99.90;;;;;;5033171;28;20509;-80
2023/05/16 05:42:54;;;;;;;6.93;0.70;;;9.60;99.90;;;;;;5049591;28;20127;-80
2023/05/16 05:45:20;;;;;;;8.07;0.60;;;9.80;99.90;;;;;;5032152;28;20408;-81
2023/05/16 05:47:46;;;;;;;3.50;0.80;;;9.90;99.90;;;;;;5033537;28;20040;-80
2023/05/16 05:50:13;;;;;;;2.88;0.40;;;10.70;99.90;;;;;;5048946;28;20052;-80
2023/05/16 05:52:39;;;;;;;4.95;0.65;;;10.80;99.90;;;;;;5050453;28;20137;-80
2023/05/16 05:55:05;;;;;;;2.88;0.60;;;10.10;99.90;;;;;;5032286;28;20080;-80
2023/05/16 05:57:31;;;;;;;3.75;0.47;;;10.20;99.90;;;;;;5050186;28;20442;-79
2023/05/16 05:59:57;;;;;;;2.75;0.50;;;10.30;99.90;;;;;;5049287;28;20128;-79
2023/05/16 06:02:22;;;;;;;8.75;0.55;;;10.40;99.90;;;;;;5048799;28;20224;-80
2023/05/16 06:04:48;;;;;;;4.65;0.55;;;10.40;99.90;;;;;;5049836;28;20133;-79
2023/05/16 06:07:14;;;;;;;8.20;0.77;;;10.60;99.90;;;;;;5064719;28;20097;-78
2023/05/16 06:09:41;;;;;;;5.88;0.47;;;10.60;99.90;;;;;;5049825;28;20053;-78
2023/05/16 06:12:08;;;;;;;3.42;0.63;;;10.80;99.90;;;;;;5019402;28;20171;-78
2023/05/16 06:14:33;;;;;;;7.03;0.93;;;10.90;99.90;;;;;;5053277;28;20065;-79
2023/05/16 06:16:59;;;;;;;6.65;0.77;;;11.00;99.90;;;;;;5053125;28;20040;-79
2023/05/16 06:19:25;;;;;;;5.45;0.90;;;11.00;99.90;;;;;;5068727;28;20087;-77
2023/05/16 06:21:51;;;;;;;4.95;0.65;;;11.10;99.90;;;;;;5053252;28;20135;-77
2023/05/16 06:24:16;;;;;;;2.08;0.50;;;11.20;99.90;;;;;;5051593;28;20078;-78
2023/05/16 06:26:45;;;;;;;4.80;0.73;;;11.40;99.90;;;;;;5036884;28;20103;-78
2023/05/16 06:29:10;;;;;;;10.90;0.60;;;11.50;99.90;;;;;;5052211;28;20074;-78
2023/05/16 06:31:36;;;;;;;4.97;0.40;;;11.40;99.90;;;;;;5069428;28;20486;-79
2023/05/16 06:34:02;;;;;;;3.60;0.47;;;11.30;99.90;;;;;;5035870;28;20051;-79
2023/05/16 06:36:27;;;;;;;4.43;0.32;;;11.20;99.90;;;;;;5069096;28;20063;-81
2023/05/16 06:38:53;;;;;;;4.03;0.40;;;11.60;99.90;;;;;;5035905;28;20047;-80
2023/05/16 06:41:20;;;;;;;4.93;0.77;;;11.20;99.90;;;;;;5068304;28;20036;-80
2023/05/16 06:43:46;;;;;;;8.68;0.40;;;11.30;99.90;;;;;;5036516;28;20045;-80
2023/05/16 06:46:11;;;;;;;3.25;0.52;;;11.40;99.90;;;;;;5050979;28;20051;-80
2023/05/16 06:48:37;;;;;;;4.90;1.42;;;11.60;99.90;;;;;;5052682;28;20409;-80
2023/05/16 06:51:03;;;;;;;10.55;0.95;;;11.80;99.90;;;;;;5018669;28;20036;-80
2023/05/16 06:53:29;;;;;;;1.55;0.32;;;11.70;99.90;;;;;;5051722;28;20126;-81
2023/05/16 06:55:55;;;;;;;6.78;0.68;;;11.70;99.90;;;;;;5068784;28;20088;-81
2023/05/16 06:58:20;;;;;;;6.97;0.50;;;11.70;99.90;;;;;;5034643;28;20052;-79
2023/05/16 07:00:49;;;;;;;5.05;0.52;;;11.70;99.90;;;;;;5068728;28;20090;-78
2023/05/16 07:03:14;;;;;;;6.90;0.60;;;11.70;99.90;;;;;;5050572;28;20044;-78
2023/05/16 07:05:40;;;;;;;2.45;0.50;;;11.70;99.90;;;;;;5035842;28;20048;-77
2023/05/16 07:08:09;;;;;;;8.65;0.75;;;11.80;99.90;;;;;;5067651;28;20040;-79
2023/05/16 07:10:35;;;;;;;3.67;0.47;;;11.90;99.90;;;;;;5067970;28;20048;-79
2023/05/16 07:13:01;;;;;;;2.17;0.50;;;12.00;99.90;;;;;;5051283;28;20134;-79
2023/05/16 07:15:26;;;;;;;5.03;0.40;;;12.10;99.90;;;;;;5050812;28;20059;-79
2023/05/16 07:17:52;;;;;;;1.50;0.30;;;12.30;99.90;;;;;;5068682;28;20048;-79
2023/05/16 07:20:18;;;;;;;3.15;0.50;;;12.60;99.90;;;;;;5050504;28;20505;-78
2023/05/16 07:22:43;;;;;;;3.20;0.52;;;12.60;99.90;;;;;;5068343;28;20045;-78
2023/05/16 07:25:11;;;;;;;3.97;0.85;;;12.60;99.90;;;;;;5068919;28;20040;-79
2023/05/16 07:27:40;;;;;;;4.10;0.70;;;12.40;99.90;;;;;;5068049;28;20346;-79
2023/05/16 07:30:08;;;;;;;3.65;0.50;;;12.10;99.90;;;;;;5067783;28;20044;-77
2023/05/16 07:32:34;;;;;;;6.70;0.60;;;12.00;99.90;;;;;;5068379;28;20055;-78
2023/05/16 07:34:59;;;;;;;4.82;0.70;;;12.00;99.90;;;;;;5068020;28;20048;-77
2023/05/16 07:37:25;;;;;;;2.28;0.40;;;12.20;99.90;;;;;;5068110;28;20142;-79
2023/05/16 07:39:51;;;;;;;3.60;0.30;;;12.30;99.90;;;;;;5051887;28;20076;-78
2023/05/16 07:42:16;;;;;;;5.43;0.70;;;12.50;99.90;;;;;;5066948;28;20048;-79
2023/05/16 07:44:42;;;;;;;4.65;0.45;;;12.70;99.90;;;;;;5068723;28;20131;-80
2023/05/16 07:47:08;;;;;;;4.22;0.57;;;12.90;99.90;;;;;;5067757;28;20047;-79
2023/05/16 07:49:34;;;;;;;8.85;0.75;;;13.00;99.90;;;;;;5050173;28;20494;-80
2023/05/16 07:51:59;;;;;;;8.75;0.93;;;13.10;99.90;;;;;;5051524;28;20040;-79
2023/05/16 07:54:25;;;;;;;4.75;0.70;;;13.20;99.90;;;;;;5066356;28;20394;-78
2023/05/16 07:56:51;;;;;;;6.25;0.57;;;13.10;99.90;;;;;;5067702;28;20131;-79
2023/05/16 07:59:16;;;;;;;7.47;0.95;;;13.10;99.90;;;;;;5049937;28;20067;-78
2023/05/16 08:01:42;;;;;;;5.88;0.65;;;13.10;99.90;;;;;;5067157;28;20051;-79
2023/05/16 08:04:08;;;;;;;4.25;0.68;;;13.00;99.90;;;;;;5050231;28;20076;-79
2023/05/16 08:06:33;;;;;;;5.65;0.57;;;13.00;99.90;;;;;;5067079;28;20090;-78
2023/05/16 08:08:59;;;;;;;4.60;0.60;;;13.10;99.90;;;;;;5050990;28;20469;-78
2023/05/16 08:11:25;;;;;;;3.05;0.57;;;13.20;99.90;;;;;;5033242;28;20037;-77
2023/05/16 08:13:51;;;;;;;4.03;0.52;;;13.10;99.90;;;;;;5050743;28;20425;-77
2023/05/16 08:16:16;;;;;;;3.85;1.17;;;13.10;99.90;;;;;;5066353;28;20135;-78
2023/05/16 08:18:42;;;;;;;4.00;0.60;;;12.80;99.90;;;;;;5033892;28;20134;-78
2023/05/16 08:21:08;;;;;;;2.42;0.63;;;12.50;99.90;;;;;;5049922;28;20463;-78
2023/05/16 08:23:35;;;;;;;1.00;0.30;;;12.20;99.90;;;;;;5066340;28;20052;-78
2023/05/16 08:26:01;;;;;;;5.07;0.50;;;12.20;99.90;;;;;;5050283;28;20209;-78
2023/05/16 08:28:28;;;;;;;5.55;1.20;;;12.20;99.90;;;;;;5065623;28;20049;-80
2023/05/16 08:30:53;;;;;;;4.35;0.55;;;12.30;99.90;;;;;;5069172;28;20040;-80
2023/05/16 08:33:19;;;;;;;2.08;0.47;;;12.50;99.90;;;;;;5065613;28;20401;-79
2023/05/16 08:35:45;;;;;;;1.98;0.30;;;12.70;99.90;;;;;;5068754;28;20494;-78
2023/05/16 08:38:11;;;;;;;5.22;0.50;;;12.90;99.90;;;;;;5049655;28;20131;-78
2023/05/16 08:40:37;;;;;;;6.00;0.63;;;13.10;99.90;;;;;;5066203;28;20048;-80
2023/05/16 08:43:04;;;;;;;4.35;0.80;;;13.10;99.90;;;;;;5066836;28;20059;-78
2023/05/16 08:45:30;;;;;;;5.13;0.40;;;13.00;99.90;;;;;;5049053;28;20508;-78
2023/05/16 08:47:58;;;;;;;2.92;0.70;;;12.90;99.90;;;;;;5050305;28;20151;-79
2023/05/16 08:50:24;;;;;;;7.40;0.85;;;12.90;99.90;;;;;;5065786;28;20449;-79
2023/05/16 08:52:52;;;;;;;4.80;0.50;;;13.00;99.90;;;;;;5050100;28;20044;-79
2023/05/16 08:55:23;;;;;;;5.07;0.90;;;12.90;99.90;;;;;;5066479;28;20455;-82
2023/05/16 08:57:52;;;;;;;5.85;0.82;;;12.80;99.90;;;;;;5049745;28;20435;-79
2023/05/16 09:00:19;;;;;;;6.03;0.70;;;12.60;99.90;;;;;;5050461;28;20337;-81
2023/05/16 09:02:45;;;;;;;6.15;0.93;;;12.60;99.90;;;;;;5049024;28;20526;-80
2023/05/16 09:05:16;;;;;;;5.80;0.70;;;12.90;99.90;;;;;;5051022;28;20467;-81
2023/05/16 09:07:42;;;;;;;4.07;0.40;;;13.30;99.90;;;;;;5065565;28;20123;-81
2023/05/16 09:10:09;;;;;;;6.45;0.77;;;13.70;99.90;;;;;;5049660;28;20052;-82
2023/05/16 09:12:35;;;;;;;2.05;0.45;;;13.90;99.90;;;;;;5066303;28;20086;-81
2023/05/16 09:23:14;;;;;;;7.57;0.60;;;14.00;99.90;;;;;;5059991;28;20059;-81
2023/05/16 09:25:40;;;;;;;11.38;0.68;;;14.00;99.90;;;;;;5066692;28;20090;-81
2023/05/16 09:28:11;;;;;;;2.65;0.95;;;13.90;99.90;;;;;;5048881;28;20095;-81
2023/05/16 09:30:38;;;;;;;3.17;0.45;;;13.80;99.90;;;;;;5050131;28;20040;-82
2023/05/16 09:33:06;;;;;;;2.13;0.20;;;13.50;99.90;;;;;;5049017;28;20469;-81
2023/05/16 09:35:31;;;;;;;0.93;0.13;;;13.00;99.90;;;;;;5066730;28;20421;-82
2023/05/16 09:37:57;;;;;;;2.67;0.40;;;12.70;99.90;;;;;;5032342;28;20045;-81
2023/05/16 09:40:23;;;;;;;2.78;0.30;;;12.30;99.90;;;;;;5049479;28;20059;-81
2023/05/16 09:43:07;;;;;;;5.75;0.50;;;12.20;99.90;;;;;;5049274;28;20076;-81
2023/05/16 09:45:34;;;;;;;6.28;1.42;;;12.40;99.90;;;;;;5049608;28;20044;-81
2023/05/16 09:48:09;;;;;;;7.43;1.00;;;12.60;99.90;;;;;;5070485;28;20033;-81
2023/05/16 09:50:36;;;;;;;6.93;0.75;;;13.00;99.90;;;;;;5052628;28;20088;-81
2023/05/16 09:53:03;;;;;;;2.55;0.63;;;13.40;99.90;;;;;;5069932;28;20052;-81
2023/05/16 09:55:29;;;;;;;6.05;0.60;;;13.80;99.90;;;;;;5053432;28;20040;-81
2023/05/16 09:57:55;;;;;;;11.60;0.85;;;13.90;99.90;;;;;;5069270;28;20041;-81
2023/05/16 10:00:21;;;;;;;8.55;0.85;;;13.70;99.90;;;;;;5036932;28;20072;-82
2023/05/16 10:02:49;;;;;;;7.68;1.00;;;13.40;99.90;;;;;;5036060;28;20045;-83
2023/05/16 10:05:16;;;;;;;5.68;0.63;;;13.30;99.90;;;;;;5037829;28;20101;-83
2023/05/16 10:07:43;;;;;;;8.75;0.80;;;13.30;99.90;;;;;;5036602;28;20055;-84
2023/05/16 10:10:11;;;;;;;5.97;0.90;;;13.60;99.90;;;;;;5054148;28;20036;-83
2023/05/16 10:12:37;;;;;;;8.27;0.50;;;13.90;99.90;;;;;;5070837;28;20213;-84
2023/05/16 10:15:04;;;;;;;3.03;0.40;;;14.20;99.90;;;;;;5035896;28;20127;-83
2023/05/16 10:17:33;;;;;;;4.53;0.52;;;14.30;99.90;;;;;;5036711;28;20055;-83
2023/05/16 10:20:06;;;;;;;1.85;0.28;;;13.90;99.90;;;;;;5068097;28;20078;-81
2023/05/16 10:22:34;;;;;;;3.45;0.60;;;13.50;99.90;;;;;;5069431;28;20524;-82
2023/05/16 10:25:11;;;;;;;3.63;0.40;;;13.20;99.90;;;;;;5067234;28;20063;-81
2023/05/16 10:27:39;;;;;;;2.55;0.40;;;12.80;99.90;;;;;;5051298;28;20052;-81
2023/05/16 10:30:07;;;;;;;4.70;0.65;;;12.70;99.90;;;;;;5068918;28;20049;-82
2023/05/16 10:32:33;;;;;;;2.30;0.30;;;12.70;99.90;;;;;;5068291;28;20076;-82
2023/05/16 10:35:01;;;;;;;4.47;0.38;;;12.70;99.90;;;;;;5068547;28;20047;-82
2023/05/16 10:37:32;;;;;;;2.63;0.55;;;12.80;99.90;;;;;;5050649;28;20041;-81
2023/05/16 10:40:00;;;;;;;6.78;0.88;;;12.80;99.90;;;;;;5051725;28;20114;-82
2023/05/16 10:42:26;;;;;;;3.70;0.32;;;12.40;99.90;;;;;;5068660;28;20461;-82
2023/05/16 10:45:18;;;;;;;4.05;0.60;;;13.10;99.90;;;;;;5068646;28;20084;-81
2023/05/16 10:47:56;;;;;;;3.40;0.63;;;13.30;99.90;;;;;;5068423;28;20080;-82
2023/05/16 10:50:41;;;;;;;6.07;0.52;;;13.50;99.90;;;;;;5068012;28;20087;-82
2023/05/16 10:53:31;;;;;;;7.45;0.40;;;13.90;99.90;;;;;;5069179;28;20040;-79
2023/05/16 10:56:02;;;;;;;5.22;0.65;;;14.10;99.90;;;;;;5050966;28;20045;-81
2023/05/16 10:58:41;;;;;;;2.85;0.50;;;14.30;99.90;;;;;;5050445;28;20056;-81
2023/05/16 11:01:28;;;;;;;3.63;0.60;;;14.70;99.90;;;;;;5067989;28;20045;-81
2023/05/16 11:03:59;;;;;;;5.00;0.50;;;14.90;99.90;;;;;;5067120;28;20053;-80
2023/05/16 11:06:26;;;;;;;2.92;0.60;;;14.80;99.90;;;;;;5069038;28;20079;-82
2023/05/16 11:09:13;;;;;;;5.38;1.10;;;14.60;99.90;;;;;;5067660;28;20170;-81
2023/05/16 11:11:42;;;;;;;4.78;0.40;;;14.40;99.90;;;;;;5067630;28;20542;-79
2023/05/16 11:14:16;;;;;;;3.13;0.50;;;14.60;99.90;;;;;;5050727;28;20037;-79
2023/05/16 11:16:48;;;;;;;6.32;0.68;;;14.60;99.90;;;;;;5068188;28;20048;-80
2023/05/16 11:19:53;;;;;;;1.83;0.50;;;15.10;99.90;;;;;;5049912;28;20055;-79
2023/05/16 11:22:22;;;;;;;1.80;0.40;;;15.40;99.90;;;;;;5065536;28;20059;-80
2023/05/16 11:25:09;;;;;;;4.90;0.63;;;15.60;99.90;;;;;;5049242;28;20477;-80
2023/05/16 11:27:43;;;;;;;1.50;0.50;;;15.60;99.90;;;;;;5066910;28;20439;-80
2023/05/16 11:30:11;;;;;;;2.05;0.32;;;15.60;99.90;;;;;;5066657;28;20528;-80
2023/05/16 11:32:38;;;;;;;6.40;0.70;;;15.30;99.90;;;;;;5066579;28;20392;-80
2023/05/16 11:35:10;;;;;;;3.97;0.70;;;15.10;99.90;;;;;;5068630;28;20080;-79
2023/05/16 11:37:38;;;;;;;7.28;0.93;;;14.70;99.90;;;;;;5066715;28;20052;-79
2023/05/16 11:40:06;;;;;;;4.68;0.70;;;14.50;99.90;;;;;;5049770;28;20044;-80
2023/05/16 11:42:38;;;;;;;5.20;0.70;;;14.20;99.90;;;;;;5049188;28;20051;-81
2023/05/16 11:45:13;;;;;;;2.70;0.60;;;14.10;99.90;;;;;;5048646;28;20074;-81
2023/05/16 11:47:40;;;;;;;11.73;1.10;;;14.40;99.90;;;;;;5066170;28;20118;-81
2023/05/16 11:50:11;;;;;;;7.40;1.35;;;14.80;99.90;;;;;;5065863;28;20036;-81
2023/05/16 11:52:37;;;;;;;2.72;0.65;;;15.20;99.90;;;;;;5066739;28;20106;-81
2023/05/16 11:55:09;;;;;;;4.10;0.95;;;15.30;99.90;;;;;;5049092;28;20541;-81
2023/05/16 11:57:37;;;;;;;7.78;0.68;;;15.20;99.90;;;;;;5066503;28;20409;-81
2023/05/16 12:00:15;;;;;;;4.30;0.88;;;14.90;99.90;;;;;;5066136;28;20040;-81
2023/05/16 12:02:40;;;;;;;4.95;0.70;;;14.80;99.90;;;;;;5050356;28;20551;-80
2023/05/16 12:05:10;;;;;;;6.68;0.82;;;14.60;99.90;;;;;;5066596;28;20036;-81
2023/05/16 12:07:36;;;;;;;2.05;0.73;;;14.60;99.90;;;;;;5066746;28;20045;-81
2023/05/16 12:10:09;;;;;;;5.55;1.15;;;14.50;99.90;;;;;;5049178;28;20039;-80
2023/05/16 12:12:37;;;;;;;5.03;0.80;;;14.40;99.90;;;;;;5048974;28;20126;-80
2023/05/16 12:15:07;;;;;;;6.18;0.88;;;14.30;99.90;;;;;;5066054;28;20458;-80
2023/05/16 12:17:35;;;;;;;4.43;0.85;;;14.40;99.90;;;;;;5067714;28;20048;-80
2023/05/16 12:20:04;;;;;;;5.47;0.70;;;14.50;99.90;;;;;;5066854;28;20043;-82
2023/05/16 12:22:31;;;;;;;9.65;1.00;;;14.50;99.90;;;;;;5067822;28;20140;-79
2023/05/16 12:24:59;;;;;;;6.40;0.70;;;14.40;99.90;;;;;;5064723;28;20378;-79
2023/05/16 12:27:26;;;;;;;4.72;1.23;;;14.40;99.90;;;;;;5066505;28;20052;-79
2023/05/16 12:29:52;;;;;;;4.30;1.02;;;14.40;99.90;;;;;;5064502;28;20056;-79
2023/05/16 12:32:18;;;;;;;5.57;1.13;;;14.50;99.90;;;;;;5064510;28;20044;-79
2023/05/16 12:34:52;;;;;;;3.70;1.45;;;14.60;99.90;;;;;;5064475;28;20052;-79
2023/05/16 12:37:19;;;;;;;3.45;0.93;;;14.50;99.90;;;;;;5047935;28;20051;-79
2023/05/16 12:39:46;;;;;;;4.70;1.30;;;14.40;99.90;;;;;;5048534;28;20051;-79
2023/05/16 12:42:13;;;;;;;9.82;1.50;;;14.20;99.90;;;;;;5064430;28;20049;-79
2023/05/16 12:44:39;;;;;;;14.20;2.53;;;14.00;99.90;;;;;;5064882;28;20061;-80
2023/05/16 12:47:14;;;;;;;3.38;1.23;;;13.70;99.90;;;;;;5064215;28;20051;-80
2023/05/16 12:49:44;;;;;;;3.13;1.17;;;13.60;99.90;;;;;;5047947;28;20037;-80
2023/05/16 12:52:17;;;;;;;5.05;1.15;;;13.30;99.90;;;;;;5064622;28;20052;-80
2023/05/16 12:54:46;;;;;;;;;;;13.30;99.90;;;;;;5047945;28;20052;-80
2023/05/16 12:57:12;;;;;;;3.55;1.40;;;13.60;99.90;;;;;;5064605;28;20015;-80
2023/05/16 12:59:38;;;;;;;5.40;2.17;;;13.90;99.90;;;;;;5063696;28;20080;-80